Terminal Aerodrome Forecast
Issued by NWS

Home | Current Version | Previous Version | Text Only | Print | Product List | Glossary On
Versions: 1 2 3 4 5 6 7 8 9 10 11 12 13 14
000
FTUS43 KIND 082320
TAFHUF
TAF
KHUF 082320Z 0900/0924 30011KT P6SM OVC025
     FM090300 30009KT P6SM OVC025
     FM090900 30008KT P6SM OVC015
     FM091400 30006KT P6SM BKN025
     FM091800 27007KT P6SM BKN040=

USA.gov is the U.S. government's official web portal to all federal, state and local government web resources and services.